sensor_id;sensor_type;location;lat;lon;timestamp;temperature;humidity
20182;DHT22;10250;50.756;6.172;2022-09-09T00:00:19;14.00;99.90
20182;DHT22;10250;50.756;6.172;2022-09-09T00:02:22;13.90;99.90
20182;DHT22;10250;50.756;6.172;2022-09-09T00:04:35;14.00;99.90
20182;DHT22;10250;50.756;6.172;2022-09-09T00:10:59;13.90;99.90
20182;DHT22;10250;50.756;6.172;2022-09-09T00:15:21;13.90;99.90
20182;DHT22;10250;50.756;6.172;2022-09-09T00:20:24;13.90;99.90
20182;DHT22;10250;50.756;6.172;2022-09-09T00:22:29;13.90;99.90
20182;DHT22;10250;50.756;6.172;2022-09-09T00:24:43;14.00;99.90
20182;DHT22;10250;50.756;6.172;2022-09-09T00:27:04;14.00;99.90
20182;DHT22;10250;50.756;6.172;2022-09-09T00:31:23;14.00;99.90
20182;DHT22;10250;50.756;6.172;2022-09-09T00:33:26;14.10;99.90
20182;DHT22;10250;50.756;6.172;2022-09-09T00:35:33;14.00;99.90
20182;DHT22;10250;50.756;6.172;2022-09-09T00:37:35;14.00;99.90
20182;DHT22;10250;50.756;6.172;2022-09-09T00:39:44;14.10;99.90
20182;DHT22;10250;50.756;6.172;2022-09-09T00:44:25;14.10;99.90
20182;DHT22;10250;50.756;6.172;2022-09-09T00:54:18;14.20;99.90
20182;DHT22;10250;50.756;6.172;2022-09-09T00:56:27;14.20;99.90
20182;DHT22;10250;50.756;6.172;2022-09-09T00:58:30;14.20;99.90
20182;DHT22;10250;50.756;6.172;2022-09-09T01:00:50;14.20;99.90
20182;DHT22;10250;50.756;6.172;2022-09-09T01:05:54;14.20;99.90
20182;DHT22;10250;50.756;6.172;2022-09-09T01:08:00;14.20;99.90
20182;DHT22;10250;50.756;6.172;2022-09-09T01:10:07;14.20;99.90
20182;DHT22;10250;50.756;6.172;2022-09-09T01:12:24;14.20;99.90
20182;DHT22;10250;50.756;6.172;2022-09-09T01:15:01;14.30;99.90
20182;DHT22;10250;50.756;6.172;2022-09-09T01:17:30;14.30;99.90
20182;DHT22;10250;50.756;6.172;2022-09-09T01:19:49;14.30;99.90
20182;DHT22;10250;50.756;6.172;2022-09-09T01:22:03;14.40;99.90
20182;DHT22;10250;50.756;6.172;2022-09-09T01:24:35;14.50;99.90
20182;DHT22;10250;50.756;6.172;2022-09-09T01:26:43;14.50;99.90
20182;DHT22;10250;50.756;6.172;2022-09-09T01:28:46;14.50;99.90
20182;DHT22;10250;50.756;6.172;2022-09-09T01:30:47;14.50;99.90
20182;DHT22;10250;50.756;6.172;2022-09-09T01:32:54;14.50;99.90
20182;DHT22;10250;50.756;6.172;2022-09-09T01:34:56;14.50;99.90
20182;DHT22;10250;50.756;6.172;2022-09-09T01:37:03;14.50;99.90
20182;DHT22;10250;50.756;6.172;2022-09-09T01:39:05;14.50;99.90
20182;DHT22;10250;50.756;6.172;2022-09-09T01:41:06;14.60;99.90
20182;DHT22;10250;50.756;6.172;2022-09-09T01:43:07;14.50;99.90
20182;DHT22;10250;50.756;6.172;2022-09-09T01:45:08;14.60;99.90
20182;DHT22;10250;50.756;6.172;2022-09-09T01:47:09;14.60;99.90
20182;DHT22;10250;50.756;6.172;2022-09-09T01:49:10;14.60;99.90
20182;DHT22;10250;50.756;6.172;2022-09-09T01:51:11;14.60;99.90
20182;DHT22;10250;50.756;6.172;2022-09-09T01:53:12;14.70;99.90
20182;DHT22;10250;50.756;6.172;2022-09-09T01:55:15;14.70;99.90
20182;DHT22;10250;50.756;6.172;2022-09-09T01:57:41;14.80;99.90
20182;DHT22;10250;50.756;6.172;2022-09-09T02:00:06;14.80;99.90
20182;DHT22;10250;50.756;6.172;2022-09-09T02:02:18;14.90;99.90
20182;DHT22;10250;50.756;6.172;2022-09-09T02:06:40;14.80;99.90
20182;DHT22;10250;50.756;6.172;2022-09-09T02:08:47;14.90;99.90
20182;DHT22;10250;50.756;6.172;2022-09-09T02:10:59;14.90;99.90
20182;DHT22;10250;50.756;6.172;2022-09-09T02:13:11;14.80;99.90
20182;DHT22;10250;50.756;6.172;2022-09-09T02:15:24;14.90;99.90
20182;DHT22;10250;50.756;6.172;2022-09-09T02:17:29;14.90;99.90
20182;DHT22;10250;50.756;6.172;2022-09-09T02:19:37;14.90;99.90
20182;DHT22;10250;50.756;6.172;2022-09-09T02:21:42;14.90;99.90
20182;DHT22;10250;50.756;6.172;2022-09-09T02:23:46;15.00;99.90
20182;DHT22;10250;50.756;6.172;2022-09-09T02:25:51;15.00;99.90
20182;DHT22;10250;50.756;6.172;2022-09-09T02:27:53;15.00;99.90
20182;DHT22;10250;50.756;6.172;2022-09-09T02:29:56;14.90;99.90
20182;DHT22;10250;50.756;6.172;2022-09-09T02:32:02;14.90;99.90
20182;DHT22;10250;50.756;6.172;2022-09-09T02:34:05;14.90;99.90
20182;DHT22;10250;50.756;6.172;2022-09-09T02:36:09;14.90;99.90
20182;DHT22;10250;50.756;6.172;2022-09-09T02:38:13;14.90;99.90
20182;DHT22;10250;50.756;6.172;2022-09-09T02:40:15;14.90;99.90
20182;DHT22;10250;50.756;6.172;2022-09-09T02:42:16;14.90;99.90
20182;DHT22;10250;50.756;6.172;2022-09-09T02:44:18;14.90;99.90
20182;DHT22;10250;50.756;6.172;2022-09-09T02:46:42;14.90;99.90
20182;DHT22;10250;50.756;6.172;2022-09-09T02:49:03;14.90;99.90
20182;DHT22;10250;50.756;6.172;2022-09-09T02:51:10;14.90;99.90
20182;DHT22;10250;50.756;6.172;2022-09-09T02:53:18;14.90;99.90
20182;DHT22;10250;50.756;6.172;2022-09-09T02:55:55;14.90;99.90
20182;DHT22;10250;50.756;6.172;2022-09-09T02:57:55;14.90;99.90
20182;DHT22;10250;50.756;6.172;2022-09-09T02:59:58;14.90;99.90
20182;DHT22;10250;50.756;6.172;2022-09-09T03:01:59;14.90;99.90
20182;DHT22;10250;50.756;6.172;2022-09-09T03:03:59;14.90;99.90
20182;DHT22;10250;50.756;6.172;2022-09-09T03:06:00;14.80;99.90
20182;DHT22;10250;50.756;6.172;2022-09-09T03:08:01;14.80;99.90
20182;DHT22;10250;50.756;6.172;2022-09-09T03:10:02;14.80;99.90
20182;DHT22;10250;50.756;6.172;2022-09-09T03:12:03;14.80;99.90
20182;DHT22;10250;50.756;6.172;2022-09-09T03:14:04;14.80;99.90
20182;DHT22;10250;50.756;6.172;2022-09-09T03:16:05;14.80;99.90
20182;DHT22;10250;50.756;6.172;2022-09-09T03:18:06;14.90;99.90
20182;DHT22;10250;50.756;6.172;2022-09-09T03:20:07;14.90;99.90
20182;DHT22;10250;50.756;6.172;2022-09-09T03:22:10;14.90;99.90
20182;DHT22;10250;50.756;6.172;2022-09-09T03:24:12;14.90;99.90
20182;DHT22;10250;50.756;6.172;2022-09-09T03:26:12;14.80;99.90
20182;DHT22;10250;50.756;6.172;2022-09-09T03:28:15;14.80;99.90
20182;DHT22;10250;50.756;6.172;2022-09-09T03:30:16;14.80;99.90
20182;DHT22;10250;50.756;6.172;2022-09-09T03:32:17;14.80;99.90
20182;DHT22;10250;50.756;6.172;2022-09-09T03:34:18;14.80;99.90
20182;DHT22;10250;50.756;6.172;2022-09-09T03:36:18;14.80;99.90
20182;DHT22;10250;50.756;6.172;2022-09-09T03:38:19;14.70;99.90
20182;DHT22;10250;50.756;6.172;2022-09-09T03:40:19;14.80;99.90
20182;DHT22;10250;50.756;6.172;2022-09-09T03:42:21;14.80;99.90
20182;DHT22;10250;50.756;6.172;2022-09-09T03:44:21;14.70;99.90
20182;DHT22;10250;50.756;6.172;2022-09-09T03:46:24;14.80;99.90
20182;DHT22;10250;50.756;6.172;2022-09-09T03:48:25;14.80;99.90
20182;DHT22;10250;50.756;6.172;2022-09-09T03:50:27;14.80;99.90
20182;DHT22;10250;50.756;6.172;2022-09-09T03:52:28;14.80;99.90
20182;DHT22;10250;50.756;6.172;2022-09-09T03:54:29;14.80;99.90
20182;DHT22;10250;50.756;6.172;2022-09-09T03:56:30;14.80;99.90
20182;DHT22;10250;50.756;6.172;2022-09-09T03:58:32;14.80;99.90
20182;DHT22;10250;50.756;6.172;2022-09-09T04:00:33;14.80;99.90
20182;DHT22;10250;50.756;6.172;2022-09-09T04:02:34;14.80;99.90
20182;DHT22;10250;50.756;6.172;2022-09-09T04:04:34;14.90;99.90
20182;DHT22;10250;50.756;6.172;2022-09-09T04:06:35;14.80;99.90
20182;DHT22;10250;50.756;6.172;2022-09-09T04:08:36;14.90;99.90
20182;DHT22;10250;50.756;6.172;2022-09-09T04:10:37;15.00;99.90
20182;DHT22;10250;50.756;6.172;2022-09-09T04:12:38;14.90;99.90
20182;DHT22;10250;50.756;6.172;2022-09-09T04:14:39;14.90;99.90
20182;DHT22;10250;50.756;6.172;2022-09-09T04:16:39;14.90;99.90
20182;DHT22;10250;50.756;6.172;2022-09-09T04:18:43;14.90;99.90
20182;DHT22;10250;50.756;6.172;2022-09-09T04:20:46;15.00;99.90
20182;DHT22;10250;50.756;6.172;2022-09-09T04:22:47;15.00;99.90
20182;DHT22;10250;50.756;6.172;2022-09-09T04:24:48;14.90;99.90
20182;DHT22;10250;50.756;6.172;2022-09-09T04:26:49;14.90;99.90
20182;DHT22;10250;50.756;6.172;2022-09-09T04:28:50;15.00;99.90
20182;DHT22;10250;50.756;6.172;2022-09-09T04:30:50;14.90;99.90
20182;DHT22;10250;50.756;6.172;2022-09-09T04:32:52;14.80;99.90
20182;DHT22;10250;50.756;6.172;2022-09-09T04:34:53;14.90;99.90
20182;DHT22;10250;50.756;6.172;2022-09-09T04:36:53;14.80;99.90
20182;DHT22;10250;50.756;6.172;2022-09-09T04:38:55;14.80;99.90
20182;DHT22;10250;50.756;6.172;2022-09-09T04:40:55;14.90;99.90
20182;DHT22;10250;50.756;6.172;2022-09-09T04:43:00;14.80;99.90
20182;DHT22;10250;50.756;6.172;2022-09-09T04:45:00;14.90;99.90
20182;DHT22;10250;50.756;6.172;2022-09-09T04:47:01;14.80;99.90
20182;DHT22;10250;50.756;6.172;2022-09-09T04:49:02;14.80;99.90
20182;DHT22;10250;50.756;6.172;2022-09-09T04:51:04;14.80;99.90
20182;DHT22;10250;50.756;6.172;2022-09-09T04:53:06;14.80;99.90
20182;DHT22;10250;50.756;6.172;2022-09-09T04:55:07;14.80;99.90
20182;DHT22;10250;50.756;6.172;2022-09-09T04:57:10;14.80;99.90
20182;DHT22;10250;50.756;6.172;2022-09-09T04:59:11;14.80;99.90
20182;DHT22;10250;50.756;6.172;2022-09-09T05:01:17;14.80;99.90
20182;DHT22;10250;50.756;6.172;2022-09-09T05:03:18;14.90;99.90
20182;DHT22;10250;50.756;6.172;2022-09-09T05:05:19;14.90;99.90
20182;DHT22;10250;50.756;6.172;2022-09-09T05:07:20;14.90;99.90
20182;DHT22;10250;50.756;6.172;2022-09-09T05:09:20;14.90;99.90
20182;DHT22;10250;50.756;6.172;2022-09-09T05:11:26;14.90;99.90
20182;DHT22;10250;50.756;6.172;2022-09-09T05:13:27;14.90;99.90
20182;DHT22;10250;50.756;6.172;2022-09-09T05:15:28;15.00;99.90
20182;DHT22;10250;50.756;6.172;2022-09-09T05:17:29;15.00;99.90
20182;DHT22;10250;50.756;6.172;2022-09-09T05:19:29;14.90;99.90
20182;DHT22;10250;50.756;6.172;2022-09-09T05:21:31;14.80;99.90
20182;DHT22;10250;50.756;6.172;2022-09-09T05:23:33;14.80;99.90
20182;DHT22;10250;50.756;6.172;2022-09-09T05:25:34;14.80;99.90
20182;DHT22;10250;50.756;6.172;2022-09-09T05:27:34;14.80;99.90
20182;DHT22;10250;50.756;6.172;2022-09-09T05:29:35;14.80;99.90
20182;DHT22;10250;50.756;6.172;2022-09-09T05:31:36;14.70;99.90
20182;DHT22;10250;50.756;6.172;2022-09-09T05:33:37;14.70;99.90
20182;DHT22;10250;50.756;6.172;2022-09-09T05:35:38;14.70;99.90
20182;DHT22;10250;50.756;6.172;2022-09-09T05:37:38;14.70;99.90
20182;DHT22;10250;50.756;6.172;2022-09-09T05:39:40;14.80;99.90
20182;DHT22;10250;50.756;6.172;2022-09-09T05:41:40;14.70;99.90
20182;DHT22;10250;50.756;6.172;2022-09-09T05:43:41;14.80;99.90
20182;DHT22;10250;50.756;6.172;2022-09-09T05:45:44;14.90;99.90
20182;DHT22;10250;50.756;6.172;2022-09-09T05:47:51;14.90;99.90
20182;DHT22;10250;50.756;6.172;2022-09-09T05:49:54;14.90;99.90
20182;DHT22;10250;50.756;6.172;2022-09-09T05:51:55;14.90;99.90
20182;DHT22;10250;50.756;6.172;2022-09-09T05:53:56;14.90;99.90
20182;DHT22;10250;50.756;6.172;2022-09-09T05:56:03;14.90;99.90
20182;DHT22;10250;50.756;6.172;2022-09-09T05:58:04;14.90;99.90
20182;DHT22;10250;50.756;6.172;2022-09-09T06:00:05;14.90;99.90
20182;DHT22;10250;50.756;6.172;2022-09-09T06:02:08;15.00;99.90
20182;DHT22;10250;50.756;6.172;2022-09-09T06:04:09;14.90;99.90
20182;DHT22;10250;50.756;6.172;2022-09-09T06:06:12;14.90;99.90
20182;DHT22;10250;50.756;6.172;2022-09-09T06:08:13;14.90;99.90
20182;DHT22;10250;50.756;6.172;2022-09-09T06:10:14;15.00;99.90
20182;DHT22;10250;50.756;6.172;2022-09-09T06:12:14;14.90;99.90
20182;DHT22;10250;50.756;6.172;2022-09-09T06:14:15;15.00;99.90
20182;DHT22;10250;50.756;6.172;2022-09-09T06:16:19;15.00;99.90
20182;DHT22;10250;50.756;6.172;2022-09-09T06:18:20;15.00;99.90
20182;DHT22;10250;50.756;6.172;2022-09-09T06:20:21;15.00;99.90
20182;DHT22;10250;50.756;6.172;2022-09-09T06:22:22;14.90;99.90
20182;DHT22;10250;50.756;6.172;2022-09-09T06:24:23;15.00;99.90
20182;DHT22;10250;50.756;6.172;2022-09-09T06:26:32;15.00;99.90
20182;DHT22;10250;50.756;6.172;2022-09-09T06:28:34;15.10;99.90
20182;DHT22;10250;50.756;6.172;2022-09-09T06:30:34;15.20;99.90
20182;DHT22;10250;50.756;6.172;2022-09-09T06:32:36;15.20;99.90
20182;DHT22;10250;50.756;6.172;2022-09-09T06:34:38;15.30;99.90
20182;DHT22;10250;50.756;6.172;2022-09-09T06:36:39;15.40;99.90
20182;DHT22;10250;50.756;6.172;2022-09-09T06:38:40;15.40;99.90
20182;DHT22;10250;50.756;6.172;2022-09-09T06:40:41;15.30;99.90
20182;DHT22;10250;50.756;6.172;2022-09-09T06:42:41;15.50;99.90
20182;DHT22;10250;50.756;6.172;2022-09-09T06:44:42;15.80;99.90
20182;DHT22;10250;50.756;6.172;2022-09-09T06:46:42;15.90;99.90
20182;DHT22;10250;50.756;6.172;2022-09-09T06:48:44;16.10;99.90
20182;DHT22;10250;50.756;6.172;2022-09-09T06:50:45;16.20;99.90
20182;DHT22;10250;50.756;6.172;2022-09-09T06:52:46;16.20;99.90
20182;DHT22;10250;50.756;6.172;2022-09-09T06:54:48;16.40;99.90
20182;DHT22;10250;50.756;6.172;2022-09-09T06:56:48;16.30;99.90
20182;DHT22;10250;50.756;6.172;2022-09-09T06:58:51;16.10;99.90
20182;DHT22;10250;50.756;6.172;2022-09-09T07:00:52;16.20;99.90
20182;DHT22;10250;50.756;6.172;2022-09-09T07:02:53;16.20;99.90
20182;DHT22;10250;50.756;6.172;2022-09-09T07:04:53;16.00;99.90
20182;DHT22;10250;50.756;6.172;2022-09-09T07:06:54;16.00;99.90
20182;DHT22;10250;50.756;6.172;2022-09-09T07:08:57;16.00;99.90
20182;DHT22;10250;50.756;6.172;2022-09-09T07:11:05;16.00;99.90
20182;DHT22;10250;50.756;6.172;2022-09-09T07:13:05;16.00;99.90
20182;DHT22;10250;50.756;6.172;2022-09-09T07:15:08;16.10;99.90
20182;DHT22;10250;50.756;6.172;2022-09-09T07:17:08;16.20;99.90
20182;DHT22;10250;50.756;6.172;2022-09-09T07:19:10;16.30;99.90
20182;DHT22;10250;50.756;6.172;2022-09-09T07:21:12;16.20;99.90
20182;DHT22;10250;50.756;6.172;2022-09-09T07:23:13;16.20;99.90
20182;DHT22;10250;50.756;6.172;2022-09-09T07:25:15;16.30;99.90
20182;DHT22;10250;50.756;6.172;2022-09-09T07:27:18;16.30;99.90
20182;DHT22;10250;50.756;6.172;2022-09-09T07:29:18;16.30;99.90
20182;DHT22;10250;50.756;6.172;2022-09-09T07:31:21;16.50;99.90
20182;DHT22;10250;50.756;6.172;2022-09-09T07:33:23;16.60;99.90
20182;DHT22;10250;50.756;6.172;2022-09-09T07:35:24;16.70;99.90
20182;DHT22;10250;50.756;6.172;2022-09-09T07:37:24;16.80;99.90
20182;DHT22;10250;50.756;6.172;2022-09-09T07:39:25;16.70;99.90
20182;DHT22;10250;50.756;6.172;2022-09-09T07:41:36;16.80;99.90
20182;DHT22;10250;50.756;6.172;2022-09-09T07:43:43;16.70;99.90
20182;DHT22;10250;50.756;6.172;2022-09-09T07:45:44;16.60;99.90
20182;DHT22;10250;50.756;6.172;2022-09-09T07:47:45;16.50;99.90
20182;DHT22;10250;50.756;6.172;2022-09-09T07:49:46;16.70;99.90
20182;DHT22;10250;50.756;6.172;2022-09-09T07:51:47;16.60;99.90
20182;DHT22;10250;50.756;6.172;2022-09-09T07:53:51;16.80;99.90
20182;DHT22;10250;50.756;6.172;2022-09-09T07:55:52;17.00;99.90
20182;DHT22;10250;50.756;6.172;2022-09-09T07:57:54;17.40;99.90
20182;DHT22;10250;50.756;6.172;2022-09-09T07:59:56;17.40;99.90
20182;DHT22;10250;50.756;6.172;2022-09-09T08:01:56;17.60;99.90
20182;DHT22;10250;50.756;6.172;2022-09-09T08:04:00;17.80;99.90
20182;DHT22;10250;50.756;6.172;2022-09-09T08:06:07;17.70;99.90
20182;DHT22;10250;50.756;6.172;2022-09-09T08:08:08;17.80;99.90
20182;DHT22;10250;50.756;6.172;2022-09-09T08:10:09;17.80;99.90
20182;DHT22;10250;50.756;6.172;2022-09-09T08:12:10;18.00;99.90
20182;DHT22;10250;50.756;6.172;2022-09-09T08:14:13;17.70;99.90
20182;DHT22;10250;50.756;6.172;2022-09-09T08:16:18;17.70;99.90
20182;DHT22;10250;50.756;6.172;2022-09-09T08:18:18;17.40;99.90
20182;DHT22;10250;50.756;6.172;2022-09-09T08:20:19;17.40;99.90
20182;DHT22;10250;50.756;6.172;2022-09-09T08:22:20;17.20;99.90
20182;DHT22;10250;50.756;6.172;2022-09-09T08:24:20;17.30;99.90
20182;DHT22;10250;50.756;6.172;2022-09-09T08:26:23;17.10;99.90
20182;DHT22;10250;50.756;6.172;2022-09-09T08:28:24;17.00;99.90
20182;DHT22;10250;50.756;6.172;2022-09-09T08:30:24;16.80;99.90
20182;DHT22;10250;50.756;6.172;2022-09-09T08:32:25;17.00;99.90
20182;DHT22;10250;50.756;6.172;2022-09-09T08:34:26;16.90;99.90
20182;DHT22;10250;50.756;6.172;2022-09-09T08:36:30;16.90;99.90
20182;DHT22;10250;50.756;6.172;2022-09-09T08:38:30;17.00;99.90
20182;DHT22;10250;50.756;6.172;2022-09-09T08:40:35;17.20;99.90
20182;DHT22;10250;50.756;6.172;2022-09-09T08:42:45;17.10;99.90
20182;DHT22;10250;50.756;6.172;2022-09-09T08:45:02;16.90;99.90
20182;DHT22;10250;50.756;6.172;2022-09-09T08:54:26;17.10;99.90
20182;DHT22;10250;50.756;6.172;2022-09-09T08:56:33;17.30;99.90
20182;DHT22;10250;50.756;6.172;2022-09-09T08:58:35;17.10;99.90
20182;DHT22;10250;50.756;6.172;2022-09-09T09:05:06;17.30;99.90
20182;DHT22;10250;50.756;6.172;2022-09-09T09:11:56;17.50;99.90
20182;DHT22;10250;50.756;6.172;2022-09-09T09:14:17;17.50;99.90
20182;DHT22;10250;50.756;6.172;2022-09-09T09:18:48;17.20;99.90
20182;DHT22;10250;50.756;6.172;2022-09-09T09:21:14;17.20;99.90
20182;DHT22;10250;50.756;6.172;2022-09-09T09:23:24;17.20;99.90
20182;DHT22;10250;50.756;6.172;2022-09-09T09:25:32;17.70;99.90
20182;DHT22;10250;50.756;6.172;2022-09-09T09:27:42;18.00;99.90
20182;DHT22;10250;50.756;6.172;2022-09-09T09:29:45;18.10;99.90
20182;DHT22;10250;50.756;6.172;2022-09-09T09:31:52;18.00;99.90
20182;DHT22;10250;50.756;6.172;2022-09-09T09:33:55;18.10;99.90
20182;DHT22;10250;50.756;6.172;2022-09-09T09:35:56;18.10;99.90
20182;DHT22;10250;50.756;6.172;2022-09-09T09:38:00;18.40;99.90
20182;DHT22;10250;50.756;6.172;2022-09-09T09:40:14;18.20;99.90
20182;DHT22;10250;50.756;6.172;2022-09-09T09:42:17;18.20;99.90
20182;DHT22;10250;50.756;6.172;2022-09-09T09:44:30;18.50;99.90
20182;DHT22;10250;50.756;6.172;2022-09-09T09:46:31;18.40;99.90
20182;DHT22;10250;50.756;6.172;2022-09-09T09:48:32;18.60;99.90
20182;DHT22;10250;50.756;6.172;2022-09-09T09:50:33;18.50;99.90
20182;DHT22;10250;50.756;6.172;2022-09-09T09:52:35;18.30;99.90
20182;DHT22;10250;50.756;6.172;2022-09-09T09:54:41;18.40;99.90
20182;DHT22;10250;50.756;6.172;2022-09-09T09:56:43;18.70;99.90
20182;DHT22;10250;50.756;6.172;2022-09-09T10:00:49;18.50;99.90
20182;DHT22;10250;50.756;6.172;2022-09-09T10:02:51;18.70;99.90
20182;DHT22;10250;50.756;6.172;2022-09-09T10:07:20;18.60;99.90
20182;DHT22;10250;50.756;6.172;2022-09-09T10:09:24;18.70;99.90
20182;DHT22;10250;50.756;6.172;2022-09-09T10:11:44;18.50;99.90
20182;DHT22;10250;50.756;6.172;2022-09-09T10:25:53;18.30;99.90
20182;DHT22;10250;50.756;6.172;2022-09-09T10:35:02;18.90;99.90
20182;DHT22;10250;50.756;6.172;2022-09-09T10:37:16;18.90;99.90
20182;DHT22;10250;50.756;6.172;2022-09-09T10:46:33;19.00;99.90
20182;DHT22;10250;50.756;6.172;2022-09-09T10:48:50;19.10;99.90
20182;DHT22;10250;50.756;6.172;2022-09-09T10:55:25;18.50;99.90
20182;DHT22;10250;50.756;6.172;2022-09-09T10:57:45;18.50;99.90
20182;DHT22;10250;50.756;6.172;2022-09-09T10:59:50;18.40;99.90
20182;DHT22;10250;50.756;6.172;2022-09-09T11:02:02;18.20;99.90
20182;DHT22;10250;50.756;6.172;2022-09-09T11:04:12;18.10;99.90
20182;DHT22;10250;50.756;6.172;2022-09-09T11:06:22;18.10;99.90
20182;DHT22;10250;50.756;6.172;2022-09-09T11:08:26;18.00;99.90
20182;DHT22;10250;50.756;6.172;2022-09-09T11:12:45;18.20;99.90
20182;DHT22;10250;50.756;6.172;2022-09-09T11:14:57;18.10;99.90
20182;DHT22;10250;50.756;6.172;2022-09-09T11:17:10;18.20;99.90
20182;DHT22;10250;50.756;6.172;2022-09-09T11:21:24;18.30;99.90
20182;DHT22;10250;50.756;6.172;2022-09-09T11:23:45;18.30;99.90
20182;DHT22;10250;50.756;6.172;2022-09-09T11:25:52;18.10;99.90
20182;DHT22;10250;50.756;6.172;2022-09-09T11:30:19;17.70;99.90
20182;DHT22;10250;50.756;6.172;2022-09-09T11:40:17;16.90;99.90
20182;DHT22;10250;50.756;6.172;2022-09-09T11:42:22;17.00;99.90
20182;DHT22;10250;50.756;6.172;2022-09-09T11:44:29;16.80;99.90
20182;DHT22;10250;50.756;6.172;2022-09-09T11:46:36;16.60;99.90
20182;DHT22;10250;50.756;6.172;2022-09-09T11:48:41;16.70;99.90
20182;DHT22;10250;50.756;6.172;2022-09-09T11:50:45;16.90;99.90
20182;DHT22;10250;50.756;6.172;2022-09-09T11:52:47;17.10;99.90
20182;DHT22;10250;50.756;6.172;2022-09-09T11:54:49;17.20;99.90
20182;DHT22;10250;50.756;6.172;2022-09-09T11:56:50;17.30;99.90
20182;DHT22;10250;50.756;6.172;2022-09-09T11:59:05;17.50;99.90
20182;DHT22;10250;50.756;6.172;2022-09-09T12:01:25;17.70;99.90
20182;DHT22;10250;50.756;6.172;2022-09-09T12:03:46;17.60;99.90
20182;DHT22;10250;50.756;6.172;2022-09-09T12:05:50;17.50;99.90
20182;DHT22;10250;50.756;6.172;2022-09-09T12:07:56;17.60;99.90
20182;DHT22;10250;50.756;6.172;2022-09-09T12:10:29;17.40;99.90
20182;DHT22;10250;50.756;6.172;2022-09-09T12:12:36;17.60;99.90
20182;DHT22;10250;50.756;6.172;2022-09-09T12:17:25;17.70;99.90
20182;DHT22;10250;50.756;6.172;2022-09-09T12:19:25;17.70;99.90
20182;DHT22;10250;50.756;6.172;2022-09-09T12:28:09;18.30;75.70
20182;DHT22;10250;50.756;6.172;2022-09-09T12:30:14;18.00;16.40
20182;DHT22;10250;50.756;6.172;2022-09-09T12:32:24;18.00;28.80
20182;DHT22;10250;50.756;6.172;2022-09-09T12:35:00;18.40;1.00
20182;DHT22;10250;50.756;6.172;2022-09-09T12:37:15;18.40;1.00
20182;DHT22;10250;50.756;6.172;2022-09-09T12:39:24;18.60;1.00
20182;DHT22;10250;50.756;6.172;2022-09-09T12:41:28;18.50;1.00
20182;DHT22;10250;50.756;6.172;2022-09-09T12:43:31;18.40;1.00
20182;DHT22;10250;50.756;6.172;2022-09-09T12:45:33;18.20;1.00
20182;DHT22;10250;50.756;6.172;2022-09-09T12:47:40;18.30;1.00
20182;DHT22;10250;50.756;6.172;2022-09-09T12:49:41;18.70;1.00
20182;DHT22;10250;50.756;6.172;2022-09-09T12:51:43;18.70;1.00
20182;DHT22;10250;50.756;6.172;2022-09-09T12:53:44;18.90;1.00
20182;DHT22;10250;50.756;6.172;2022-09-09T12:56:22;18.70;99.90
20182;DHT22;10250;50.756;6.172;2022-09-09T12:58:25;18.60;1.00
20182;DHT22;10250;50.756;6.172;2022-09-09T13:00:26;18.80;1.00
20182;DHT22;10250;50.756;6.172;2022-09-09T13:02:28;18.70;1.00
20182;DHT22;10250;50.756;6.172;2022-09-09T13:04:28;18.70;1.00
20182;DHT22;10250;50.756;6.172;2022-09-09T13:06:31;18.80;1.00
20182;DHT22;10250;50.756;6.172;2022-09-09T13:08:32;19.10;99.90
20182;DHT22;10250;50.756;6.172;2022-09-09T13:10:39;19.00;40.40
20182;DHT22;10250;50.756;6.172;2022-09-09T13:12:41;19.10;1.00
20182;DHT22;10250;50.756;6.172;2022-09-09T13:14:45;19.00;99.90
20182;DHT22;10250;50.756;6.172;2022-09-09T13:16:58;19.10;1.00
20182;DHT22;10250;50.756;6.172;2022-09-09T13:19:02;18.80;99.90
20182;DHT22;10250;50.756;6.172;2022-09-09T13:21:07;18.80;99.90
20182;DHT22;10250;50.756;6.172;2022-09-09T13:23:11;18.70;1.00
20182;DHT22;10250;50.756;6.172;2022-09-09T13:27:28;18.70;23.50
20182;DHT22;10250;50.756;6.172;2022-09-09T13:29:31;18.90;99.90
20182;DHT22;10250;50.756;6.172;2022-09-09T13:31:34;18.90;99.90
20182;DHT22;10250;50.756;6.172;2022-09-09T13:33:38;18.80;99.90
20182;DHT22;10250;50.756;6.172;2022-09-09T13:35:50;18.60;99.90
20182;DHT22;10250;50.756;6.172;2022-09-09T13:37:53;18.50;99.90
20182;DHT22;10250;50.756;6.172;2022-09-09T13:39:54;18.60;1.00
20182;DHT22;10250;50.756;6.172;2022-09-09T13:41:55;18.70;1.00
20182;DHT22;10250;50.756;6.172;2022-09-09T13:43:57;18.60;1.00
20182;DHT22;10250;50.756;6.172;2022-09-09T13:46:45;18.40;27.20
20182;DHT22;10250;50.756;6.172;2022-09-09T13:48:21;18.60;99.90
20182;DHT22;10250;50.756;6.172;2022-09-09T13:50:26;18.40;1.00
20182;DHT22;10250;50.756;6.172;2022-09-09T13:52:29;18.50;32.80
20182;DHT22;10250;50.756;6.172;2022-09-09T13:54:31;18.30;44.10
20182;DHT22;10250;50.756;6.172;2022-09-09T13:56:36;18.40;7.10
20182;DHT22;10250;50.756;6.172;2022-09-09T13:58:36;18.50;2.30
20182;DHT22;10250;50.756;6.172;2022-09-09T14:00:37;18.40;1.00
20182;DHT22;10250;50.756;6.172;2022-09-09T14:02:38;18.50;1.00
20182;DHT22;10250;50.756;6.172;2022-09-09T14:04:39;18.60;99.90
20182;DHT22;10250;50.756;6.172;2022-09-09T14:06:41;18.50;1.00
20182;DHT22;10250;50.756;6.172;2022-09-09T14:08:43;18.50;1.00
20182;DHT22;10250;50.756;6.172;2022-09-09T14:10:46;18.50;1.00
20182;DHT22;10250;50.756;6.172;2022-09-09T14:12:46;18.40;1.00
20182;DHT22;10250;50.756;6.172;2022-09-09T14:14:47;18.20;1.00
20182;DHT22;10250;50.756;6.172;2022-09-09T14:16:47;18.20;1.00
20182;DHT22;10250;50.756;6.172;2022-09-09T14:18:48;18.00;1.00
20182;DHT22;10250;50.756;6.172;2022-09-09T14:20:49;17.90;1.00
20182;DHT22;10250;50.756;6.172;2022-09-09T14:22:50;17.90;1.00
20182;DHT22;10250;50.756;6.172;2022-09-09T14:24:51;17.90;1.00
20182;DHT22;10250;50.756;6.172;2022-09-09T14:26:52;18.00;99.80
20182;DHT22;10250;50.756;6.172;2022-09-09T14:28:53;17.70;99.90
20182;DHT22;10250;50.756;6.172;2022-09-09T14:30:53;17.80;99.90
20182;DHT22;10250;50.756;6.172;2022-09-09T14:32:54;17.90;99.90
20182;DHT22;10250;50.756;6.172;2022-09-09T14:34:54;17.70;99.90
20182;DHT22;10250;50.756;6.172;2022-09-09T14:36:55;17.50;99.90
20182;DHT22;10250;50.756;6.172;2022-09-09T14:38:56;17.60;99.90
20182;DHT22;10250;50.756;6.172;2022-09-09T14:40:57;17.60;99.90
20182;DHT22;10250;50.756;6.172;2022-09-09T14:42:58;17.40;99.90
20182;DHT22;10250;50.756;6.172;2022-09-09T14:44:59;17.30;99.90
20182;DHT22;10250;50.756;6.172;2022-09-09T14:47:00;17.20;99.90
20182;DHT22;10250;50.756;6.172;2022-09-09T14:49:00;17.20;99.90
20182;DHT22;10250;50.756;6.172;2022-09-09T14:51:10;17.10;99.90
20182;DHT22;10250;50.756;6.172;2022-09-09T14:53:12;17.30;99.90
20182;DHT22;10250;50.756;6.172;2022-09-09T14:55:14;17.10;99.90